Portada
METAR-TAF:

METAR-TAF

Aeropuertos :

Sun City, Sudáfrica

latitud: 25-20-01S, longitud: 027-10-24E, altitud: 1040 m

Observación

El informe se hizo hace 32 minutos, a las 11:00 UTC
Viento 2 kt del noreste
Temperatura 27°C
Humedad 28%
Presión 1025 hPa

METAR: FAPN 191100Z AUTO 05002KT //// // ////// 27/07 Q1025

Hora: 13:32 (11:32 UTC)


TAF: falta

Observaciones y pronósticos meteorológicos de más de 4000 aeropuertos (mensajes METAR y TAF).

Los puntos amarillos y rojos representan las estaciones disponibles.

Ponga el ratón en el punto deseado para ver el nombre de la estación.

Haga clic para ver las observaciones y los pronósticos meteorológicos.

Para cambiar el mapa : haga clic en los botones verdes con una cruz de color negro para hacer un zoom, en el botón verde con un guión para alejar o en las flechas verdes para mapas adyacentes.


METAR-TAF: